createdAt,value
2023-04-07T00:00:25.724Z,99.40
2023-04-07T00:02:52.599Z,99.40
2023-04-07T00:05:19.370Z,99.40
2023-04-07T00:07:55.652Z,99.40
2023-04-07T00:10:24.006Z,99.50
2023-04-07T00:12:50.698Z,99.50
2023-04-07T00:15:17.464Z,99.60
2023-04-07T00:17:44.213Z,99.60
2023-04-07T00:20:11.503Z,99.60
2023-04-07T00:22:38.184Z,99.70
2023-04-07T00:25:05.364Z,99.70
2023-04-07T00:27:31.998Z,99.80
2023-04-07T00:29:58.638Z,99.80
2023-04-07T00:32:25.374Z,99.80
2023-04-07T00:34:52.076Z,99.80
2023-04-07T00:37:19.349Z,99.80
2023-04-07T00:39:46.777Z,99.90
2023-04-07T00:42:13.636Z,99.90
2023-04-07T00:44:40.787Z,99.90
2023-04-07T00:47:08.254Z,99.90
2023-04-07T00:49:36.684Z,99.90
2023-04-07T00:52:04.449Z,99.90
2023-04-07T00:54:31.354Z,99.90
2023-04-07T00:56:58.128Z,99.90
2023-04-07T00:59:25.727Z,99.90
2023-04-07T01:02:02.026Z,99.90
2023-04-07T01:05:02.077Z,99.90
2023-04-07T01:07:35.981Z,99.90
2023-04-07T01:10:11.950Z,99.90
2023-04-07T01:13:01.593Z,99.90
2023-04-07T01:15:30.725Z,99.90
2023-04-07T01:18:15.870Z,99.90
2023-04-07T01:20:45.807Z,99.90
2023-04-07T01:23:23.224Z,99.90
2023-04-07T01:26:24.642Z,99.90
2023-04-07T01:29:27.578Z,99.90
2023-04-07T01:31:56.508Z,99.90
2023-04-07T01:34:26.575Z,99.90
2023-04-07T01:36:54.823Z,99.90
2023-04-07T01:39:22.688Z,99.90
2023-04-07T01:41:52.991Z,99.90
2023-04-07T01:44:20.792Z,99.90
2023-04-07T01:46:50.997Z,99.90
2023-04-07T01:49:19.226Z,99.90
2023-04-07T01:51:50.236Z,99.90
2023-04-07T01:54:18.028Z,99.90
2023-04-07T01:56:45.137Z,99.90
2023-04-07T01:59:11.956Z,99.90
2023-04-07T02:01:38.931Z,99.90
2023-04-07T02:04:10.311Z,99.90
2023-04-07T02:06:43.122Z,99.90
2023-04-07T02:09:13.064Z,99.90
2023-04-07T02:11:42.387Z,99.90
2023-04-07T02:14:09.861Z,99.90
2023-04-07T02:16:53.494Z,99.90
2023-04-07T02:19:21.084Z,99.90
2023-04-07T02:21:50.009Z,99.90
2023-04-07T02:24:20.803Z,99.90
2023-04-07T02:26:48.177Z,99.90
2023-04-07T02:29:15.372Z,99.90
2023-04-07T02:31:43.401Z,99.90
2023-04-07T02:34:10.363Z,99.90
2023-04-07T02:36:38.308Z,99.90
2023-04-07T02:39:09.014Z,99.90
2023-04-07T02:41:35.679Z,99.90
2023-04-07T02:44:02.342Z,99.90
2023-04-07T02:46:30.377Z,99.90
2023-04-07T02:48:57.341Z,99.90
2023-04-07T02:51:23.966Z,99.90
2023-04-07T02:53:50.667Z,99.90
2023-04-07T02:56:17.509Z,99.90
2023-04-07T02:58:44.196Z,99.90
2023-04-07T03:01:11.136Z,99.90
2023-04-07T03:03:39.423Z,99.90
2023-04-07T03:06:14.682Z,99.90
2023-04-07T03:08:53.018Z,99.90
2023-04-07T03:11:19.664Z,99.90
2023-04-07T03:13:46.408Z,99.90
2023-04-07T03:16:15.294Z,99.90
2023-04-07T03:18:55.243Z,99.90
2023-04-07T03:21:22.737Z,99.90
2023-04-07T03:23:49.365Z,99.90
2023-04-07T03:26:16.118Z,99.90
2023-04-07T03:28:43.189Z,99.90
2023-04-07T03:31:09.990Z,99.90
2023-04-07T03:33:36.723Z,99.90
2023-04-07T03:36:03.535Z,99.90
2023-04-07T03:38:31.253Z,99.90
2023-04-07T03:41:01.604Z,99.90
2023-04-07T03:43:28.527Z,99.90
2023-04-07T03:45:55.356Z,99.90
2023-04-07T03:48:23.246Z,99.90
2023-04-07T03:51:00.029Z,99.90
2023-04-07T03:53:27.106Z,99.90
2023-04-07T03:55:53.976Z,99.90
2023-04-07T03:58:36.654Z,99.90
2023-04-07T04:01:04.077Z,99.90
2023-04-07T04:03:31.202Z,99.90
2023-04-07T04:06:10.282Z,99.90
2023-04-07T04:08:36.937Z,99.90
2023-04-07T04:11:05.298Z,99.90
2023-04-07T04:13:37.474Z,99.90
2023-04-07T04:16:05.851Z,99.90
2023-04-07T04:18:33.925Z,99.90
2023-04-07T04:21:00.672Z,99.90
2023-04-07T04:23:27.777Z,99.90
2023-04-07T04:25:56.896Z,99.90
2023-04-07T04:28:23.551Z,99.90
2023-04-07T04:30:50.487Z,99.90
2023-04-07T04:33:17.584Z,99.90
2023-04-07T04:35:54.370Z,99.90
2023-04-07T04:38:21.929Z,99.90
2023-04-07T04:40:54.624Z,99.90
2023-04-07T04:43:26.540Z,99.90
2023-04-07T04:45:53.445Z,99.90
2023-04-07T04:48:23.934Z,99.90
2023-04-07T04:50:50.602Z,99.90
2023-04-07T04:53:17.456Z,99.90
2023-04-07T04:55:57.521Z,99.90
2023-04-07T04:58:35.823Z,99.90
2023-04-07T05:01:02.547Z,99.90
2023-04-07T05:03:36.989Z,99.90
2023-04-07T05:06:11.624Z,99.90
2023-04-07T05:08:41.252Z,99.90
2023-04-07T05:11:09.440Z,99.90
2023-04-07T05:13:37.263Z,99.90
2023-04-07T05:16:05.364Z,99.90
2023-04-07T05:18:32.534Z,99.90
2023-04-07T05:21:01.824Z,99.90
2023-04-07T05:23:28.853Z,99.90
2023-04-07T05:25:56.885Z,99.90
2023-04-07T05:28:24.802Z,99.90
2023-04-07T05:30:53.347Z,99.90
2023-04-07T05:33:24.134Z,99.90
2023-04-07T05:35:53.269Z,99.90
2023-04-07T05:38:19.915Z,99.90
2023-04-07T05:40:47.336Z,99.90
2023-04-07T05:43:21.943Z,99.90
2023-04-07T05:45:49.227Z,99.90
2023-04-07T05:48:16.241Z,99.90
2023-04-07T05:50:45.935Z,99.90
2023-04-07T05:53:16.241Z,99.90
2023-04-07T05:55:43.541Z,99.90
2023-04-07T05:58:13.963Z,99.90
2023-04-07T06:00:44.570Z,99.90
2023-04-07T06:03:15.364Z,99.90
2023-04-07T06:05:52.433Z,99.90
2023-04-07T06:08:21.115Z,99.90
2023-04-07T06:10:47.887Z,99.90
2023-04-07T06:13:14.598Z,99.90
2023-04-07T06:15:42.386Z,99.90
2023-04-07T06:18:09.941Z,99.90
2023-04-07T06:20:36.746Z,99.90
2023-04-07T06:23:03.417Z,99.90
2023-04-07T06:25:30.330Z,99.90
2023-04-07T06:27:57.002Z,99.90
2023-04-07T06:30:23.781Z,99.90
2023-04-07T06:32:51.362Z,99.90
2023-04-07T06:35:18.100Z,99.90
2023-04-07T06:37:44.747Z,99.90
2023-04-07T06:40:11.568Z,99.90
2023-04-07T06:42:38.221Z,99.90
2023-04-07T06:45:11.529Z,99.90
2023-04-07T06:47:38.250Z,99.90
2023-04-07T06:50:05.753Z,99.90
2023-04-07T06:52:32.389Z,99.90
2023-04-07T06:54:59.588Z,99.90
2023-04-07T06:57:26.342Z,99.90
2023-04-07T06:59:52.961Z,99.90
2023-04-07T07:02:19.938Z,99.90
2023-04-07T07:04:46.975Z,99.90
2023-04-07T07:07:13.593Z,99.90
2023-04-07T07:09:40.444Z,99.90
2023-04-07T07:12:07.249Z,99.90
2023-04-07T07:14:33.848Z,99.90
2023-04-07T07:17:00.653Z,99.90
2023-04-07T07:19:27.285Z,99.90
2023-04-07T07:21:55.365Z,99.90
2023-04-07T07:24:22.017Z,99.90
2023-04-07T07:26:48.661Z,99.90
2023-04-07T07:29:15.421Z,99.90
2023-04-07T07:31:42.263Z,99.90
2023-04-07T07:34:08.919Z,99.90
2023-04-07T07:36:35.541Z,99.90
2023-04-07T07:39:02.235Z,99.90
2023-04-07T07:41:29.240Z,99.90
2023-04-07T07:43:55.855Z,99.90
2023-04-07T07:46:24.381Z,99.90
2023-04-07T07:48:51.148Z,99.90
2023-04-07T07:51:18.490Z,99.90
2023-04-07T07:53:45.952Z,99.90
2023-04-07T07:56:13.161Z,99.90
2023-04-07T07:58:39.979Z,99.90
2023-04-07T08:01:06.632Z,99.90
2023-04-07T08:03:33.504Z,99.90
2023-04-07T08:06:00.941Z,99.90
2023-04-07T08:08:27.685Z,99.90
2023-04-07T08:10:54.315Z,99.90
2023-04-07T08:13:21.014Z,99.90
2023-04-07T08:15:47.750Z,99.90
2023-04-07T08:18:14.544Z,99.90
2023-04-07T08:20:41.558Z,99.90
2023-04-07T08:23:08.285Z,99.90
2023-04-07T08:25:35.500Z,99.90
2023-04-07T08:28:02.262Z,99.90
2023-04-07T08:30:28.936Z,99.90
2023-04-07T08:32:56.621Z,99.90
2023-04-07T08:35:23.651Z,99.90
2023-04-07T08:37:50.414Z,99.90
2023-04-07T08:40:17.260Z,99.90
2023-04-07T08:42:49.232Z,99.90
2023-04-07T08:45:17.546Z,99.90
2023-04-07T08:47:46.368Z,99.90
2023-04-07T08:50:16.736Z,99.90
2023-04-07T08:52:51.267Z,99.90
2023-04-07T08:55:18.021Z,99.90
2023-04-07T08:57:45.922Z,99.90
2023-04-07T09:00:13.646Z,99.90
2023-04-07T09:02:45.897Z,99.90
2023-04-07T09:05:14.587Z,99.90
2023-04-07T09:07:43.135Z,99.90
2023-04-07T09:10:10.294Z,99.90
2023-04-07T09:12:37.675Z,99.90
2023-04-07T09:15:06.497Z,99.90
2023-04-07T09:17:33.202Z,99.90
2023-04-07T09:20:01.511Z,99.90
2023-04-07T09:22:54.549Z,99.90
2023-04-07T09:25:24.011Z,99.90
2023-04-07T09:27:55.315Z,99.90
2023-04-07T09:30:22.315Z,99.90
2023-04-07T09:32:49.112Z,99.90
2023-04-07T09:35:16.035Z,99.90
2023-04-07T09:37:42.667Z,99.90
2023-04-07T09:40:09.948Z,99.90
2023-04-07T09:42:45.785Z,99.90
2023-04-07T09:45:16.357Z,99.90
2023-04-07T09:47:47.727Z,99.90
2023-04-07T09:50:14.444Z,99.90
2023-04-07T09:52:52.543Z,99.90
2023-04-07T09:55:23.678Z,99.90
2023-04-07T09:57:51.243Z,99.90
2023-04-07T10:00:18.522Z,99.90
2023-04-07T10:02:45.751Z,99.90
2023-04-07T10:05:12.588Z,99.90
2023-04-07T10:07:41.470Z,99.90
2023-04-07T10:10:10.356Z,99.90
2023-04-07T10:12:41.649Z,99.90
2023-04-07T10:15:09.032Z,99.90
2023-04-07T10:17:40.186Z,99.90
2023-04-07T10:20:09.883Z,99.90
2023-04-07T10:22:37.788Z,99.90
2023-04-07T10:25:11.422Z,99.90
2023-04-07T10:28:04.461Z,99.90
2023-04-07T10:30:33.405Z,99.90
2023-04-07T10:33:00.322Z,99.90
2023-04-07T10:35:28.284Z,99.90
2023-04-07T10:38:13.807Z,99.90
2023-04-07T10:40:42.683Z,99.90
2023-04-07T10:43:11.314Z,99.90
2023-04-07T10:45:48.247Z,99.90
2023-04-07T10:48:16.458Z,99.90
2023-04-07T10:50:46.778Z,99.90
2023-04-07T10:53:15.519Z,99.90
2023-04-07T10:55:46.216Z,99.90
2023-04-07T10:58:29.508Z,99.90
2023-04-07T11:01:08.374Z,99.90
2023-04-07T11:03:40.714Z,99.90
2023-04-07T11:06:09.336Z,99.90
2023-04-07T11:08:54.517Z,99.90
2023-04-07T11:11:39.732Z,99.90
2023-04-07T11:14:06.698Z,99.90
2023-04-07T11:16:41.918Z,99.90
2023-04-07T11:19:08.999Z,99.90
2023-04-07T11:21:36.878Z,99.90
2023-04-07T11:24:03.950Z,99.90
2023-04-07T11:26:36.856Z,99.90
2023-04-07T11:29:03.540Z,99.90
2023-04-07T11:31:31.873Z,99.90
2023-04-07T11:33:59.877Z,99.90
2023-04-07T11:36:40.782Z,99.90
2023-04-07T11:39:20.598Z,99.90
2023-04-07T11:41:48.587Z,99.90
2023-04-07T11:44:15.422Z,99.90
2023-04-07T11:46:54.829Z,99.90
2023-04-07T11:49:23.504Z,99.90
2023-04-07T11:52:01.416Z,99.90
2023-04-07T11:54:38.432Z,99.90
2023-04-07T11:57:05.185Z,99.90
2023-04-07T11:59:32.747Z,99.90
2023-04-07T12:01:59.592Z,99.90
2023-04-07T12:04:26.513Z,99.90
2023-04-07T12:06:53.228Z,99.90
2023-04-07T12:09:32.250Z,99.90
2023-04-07T12:11:59.321Z,99.90
2023-04-07T12:14:27.716Z,99.90
2023-04-07T12:16:59.100Z,99.90
2023-04-07T12:19:30.556Z,99.90
2023-04-07T12:21:57.290Z,99.90
2023-04-07T12:24:24.204Z,99.90
2023-04-07T12:26:50.994Z,99.90
2023-04-07T12:29:19.864Z,99.90
2023-04-07T12:31:47.571Z,99.90
2023-04-07T12:34:16.312Z,99.90
2023-04-07T12:36:43.607Z,99.90
2023-04-07T12:39:10.278Z,99.90
2023-04-07T12:41:38.555Z,99.90
2023-04-07T12:44:05.928Z,99.90
2023-04-07T12:46:32.781Z,99.90
2023-04-07T12:49:00.120Z,99.90
2023-04-07T12:51:27.093Z,99.90
2023-04-07T12:53:54.257Z,99.90
2023-04-07T12:56:24.055Z,99.90
2023-04-07T12:58:50.746Z,99.90
2023-04-07T13:01:17.546Z,99.90
2023-04-07T13:03:44.809Z,99.90
2023-04-07T13:06:11.903Z,99.90
2023-04-07T13:08:39.356Z,99.90
2023-04-07T13:11:06.583Z,99.90
2023-04-07T13:13:33.587Z,99.90
2023-04-07T13:16:00.811Z,99.90
2023-04-07T13:18:27.467Z,99.90
2023-04-07T13:21:14.318Z,99.90
2023-04-07T13:23:43.638Z,99.90
2023-04-07T13:26:11.208Z,99.90
2023-04-07T13:28:38.639Z,99.90
2023-04-07T13:31:05.434Z,99.90
2023-04-07T13:33:32.133Z,99.90
2023-04-07T13:35:58.839Z,99.90
2023-04-07T13:38:26.251Z,99.90
2023-04-07T13:40:52.912Z,99.90
2023-04-07T13:43:20.004Z,99.90
2023-04-07T13:45:46.883Z,99.90
2023-04-07T13:48:13.684Z,99.90
2023-04-07T13:50:40.820Z,99.90
2023-04-07T13:53:07.547Z,99.90
2023-04-07T13:55:34.257Z,99.90
2023-04-07T13:58:01.141Z,99.90
2023-04-07T14:00:27.971Z,99.90
2023-04-07T14:02:56.022Z,99.90
2023-04-07T14:05:24.098Z,99.90
2023-04-07T14:07:50.944Z,99.90
2023-04-07T14:10:17.774Z,99.90
2023-04-07T14:12:44.459Z,99.90
2023-04-07T14:15:11.236Z,99.90
2023-04-07T14:17:37.914Z,99.90
2023-04-07T14:20:05.049Z,99.80
2023-04-07T14:22:31.735Z,99.60
2023-04-07T14:24:58.449Z,99.40
2023-04-07T14:27:25.440Z,99.40
2023-04-07T14:29:52.945Z,99.30
2023-04-07T14:32:19.683Z,99.50
2023-04-07T14:34:46.317Z,99.50
2023-04-07T14:37:13.987Z,99.50
2023-04-07T14:39:41.750Z,99.40
2023-04-07T14:42:10.443Z,99.40
2023-04-07T14:44:37.440Z,99.30
2023-04-07T14:47:04.074Z,99.40
2023-04-07T14:49:30.718Z,99.30
2023-04-07T14:51:58.572Z,99.30
2023-04-07T14:54:25.297Z,99.30
2023-04-07T14:56:51.986Z,99.10
2023-04-07T14:59:18.689Z,98.80
2023-04-07T15:01:45.468Z,98.70
2023-04-07T15:04:12.387Z,98.70
2023-04-07T15:06:42.798Z,98.60
2023-04-07T15:09:09.635Z,98.30
2023-04-07T15:11:36.493Z,98.70
2023-04-07T15:14:04.090Z,98.60
2023-04-07T15:16:30.893Z,98.40
2023-04-07T15:18:57.812Z,98.20
2023-04-07T15:21:24.513Z,98.00
2023-04-07T15:23:51.475Z,98.10
2023-04-07T15:26:18.408Z,98.20
2023-04-07T15:28:45.152Z,98.10
2023-04-07T15:31:11.864Z,97.80
2023-04-07T15:33:40.097Z,97.60
2023-04-07T15:36:08.428Z,97.50
2023-04-07T15:38:35.707Z,97.40
2023-04-07T15:41:02.435Z,97.80
2023-04-07T15:43:29.125Z,97.70
2023-04-07T15:45:56.283Z,97.60
2023-04-07T15:48:22.992Z,97.60
2023-04-07T15:50:49.859Z,97.70
2023-04-07T15:53:16.535Z,97.70
2023-04-07T15:55:44.180Z,97.60
2023-04-07T15:58:10.995Z,97.50
2023-04-07T16:00:38.992Z,97.60
2023-04-07T16:03:05.826Z,97.30
2023-04-07T16:05:32.734Z,97.30
2023-04-07T16:07:59.473Z,97.40
2023-04-07T16:10:26.152Z,97.20
2023-04-07T16:12:52.941Z,97.20
2023-04-07T16:15:28.950Z,97.10
2023-04-07T16:18:10.002Z,97.20
2023-04-07T16:20:36.817Z,97.00
2023-04-07T16:23:03.891Z,97.20
2023-04-07T16:25:31.105Z,97.10
2023-04-07T16:27:57.997Z,97.00
2023-04-07T16:30:25.159Z,97.00
2023-04-07T16:32:52.276Z,97.00
2023-04-07T16:35:19.081Z,97.00
2023-04-07T16:37:46.509Z,97.00
2023-04-07T16:40:13.799Z,96.80
2023-04-07T16:42:40.801Z,96.90
2023-04-07T16:45:08.291Z,96.90
2023-04-07T16:47:35.562Z,96.80
2023-04-07T16:50:03.792Z,96.90
2023-04-07T16:52:31.018Z,96.70
2023-04-07T16:54:58.050Z,96.80
2023-04-07T16:57:24.696Z,96.80
2023-04-07T16:59:51.398Z,96.80
2023-04-07T17:02:18.388Z,96.60
2023-04-07T17:04:45.265Z,96.50
2023-04-07T17:07:12.226Z,96.20
2023-04-07T17:09:39.488Z,96.10
2023-04-07T17:12:06.515Z,96.20
2023-04-07T17:14:33.484Z,96.20
2023-04-07T17:17:00.680Z,96.30
2023-04-07T17:19:27.461Z,96.20
2023-04-07T17:21:54.111Z,96.30
2023-04-07T17:24:21.238Z,96.30
2023-04-07T17:26:47.899Z,96.30
2023-04-07T17:29:15.570Z,96.40
2023-04-07T17:31:42.331Z,96.10
2023-04-07T17:34:09.010Z,96.20
2023-04-07T17:36:37.371Z,96.20
2023-04-07T17:39:04.863Z,96.10
2023-04-07T17:41:34.888Z,96.10
2023-04-07T17:44:02.013Z,95.90
2023-04-07T17:46:28.911Z,96.10
2023-04-07T17:48:57.495Z,96.10
2023-04-07T17:51:25.098Z,96.10
2023-04-07T17:53:53.448Z,96.10
2023-04-07T17:56:20.443Z,96.00
2023-04-07T17:58:47.395Z,96.10
2023-04-07T18:01:14.140Z,96.00
2023-04-07T18:03:40.905Z,96.00
2023-04-07T18:06:08.475Z,96.40
2023-04-07T18:08:35.354Z,96.00
2023-04-07T18:11:02.019Z,96.00
2023-04-07T18:13:28.707Z,96.00
2023-04-07T18:15:55.453Z,96.00
2023-04-07T18:18:22.309Z,95.90
2023-04-07T18:20:49.946Z,95.90
2023-04-07T18:23:16.581Z,95.80
2023-04-07T18:25:43.270Z,95.90
2023-04-07T18:28:11.676Z,95.90
2023-04-07T18:30:39.088Z,95.80
2023-04-07T18:33:05.765Z,95.80
2023-04-07T18:35:32.740Z,95.80
2023-04-07T18:37:59.524Z,95.80
2023-04-07T18:40:26.214Z,95.70
2023-04-07T18:42:52.993Z,95.80
2023-04-07T18:45:19.689Z,95.70
2023-04-07T18:47:46.423Z,95.70
2023-04-07T18:50:13.248Z,95.70
2023-04-07T18:52:39.896Z,95.70
2023-04-07T18:55:07.828Z,95.70
2023-04-07T18:57:34.750Z,95.60
2023-04-07T19:00:01.811Z,95.70
2023-04-07T19:02:28.521Z,95.70
2023-04-07T19:04:55.388Z,95.70
2023-04-07T19:07:22.034Z,95.70
2023-04-07T19:09:53.099Z,95.60
2023-04-07T19:12:19.734Z,95.60
2023-04-07T19:14:46.391Z,95.60
2023-04-07T19:17:13.073Z,95.60
2023-04-07T19:19:39.662Z,95.50
2023-04-07T19:22:06.572Z,95.50
2023-04-07T19:24:34.031Z,95.50
2023-04-07T19:27:01.331Z,95.50
2023-04-07T19:29:28.118Z,95.60
2023-04-07T19:31:57.029Z,95.60
2023-04-07T19:34:23.822Z,95.60
2023-04-07T19:36:50.603Z,95.60
2023-04-07T19:39:17.228Z,95.60
2023-04-07T19:41:43.925Z,95.60
2023-04-07T19:44:10.709Z,95.60
2023-04-07T19:46:37.535Z,95.60
2023-04-07T19:49:04.209Z,95.60
2023-04-07T19:51:30.991Z,95.60
2023-04-07T19:53:57.717Z,95.60
2023-04-07T19:56:24.980Z,95.60
2023-04-07T19:58:51.811Z,95.60
2023-04-07T20:01:19.231Z,95.60
2023-04-07T20:03:46.640Z,95.90
2023-04-07T20:06:14.947Z,95.60
2023-04-07T20:08:42.350Z,95.60
2023-04-07T20:11:12.782Z,95.50
2023-04-07T20:13:40.526Z,95.50
2023-04-07T20:16:07.653Z,95.50
2023-04-07T20:18:34.464Z,95.50
2023-04-07T20:21:02.309Z,95.50
2023-04-07T20:23:29.221Z,95.50
2023-04-07T20:25:56.283Z,95.50
2023-04-07T20:28:23.731Z,95.50
2023-04-07T20:30:50.461Z,95.50
2023-04-07T20:33:17.323Z,95.50
2023-04-07T20:35:44.175Z,95.50
2023-04-07T20:38:11.054Z,95.50
2023-04-07T20:40:37.745Z,95.50
2023-04-07T20:43:05.520Z,95.50
2023-04-07T20:45:33.103Z,95.50
2023-04-07T20:48:00.003Z,95.50
2023-04-07T20:50:26.859Z,95.50
2023-04-07T20:52:53.723Z,95.50
2023-04-07T20:55:20.902Z,95.60
2023-04-07T20:57:48.418Z,95.60
2023-04-07T21:00:17.210Z,95.60
2023-04-07T21:02:45.129Z,95.60
2023-04-07T21:05:11.925Z,95.60
2023-04-07T21:07:38.632Z,95.60
2023-04-07T21:10:06.153Z,95.60
2023-04-07T21:12:32.775Z,95.60
2023-04-07T21:14:59.584Z,95.70
2023-04-07T21:17:26.207Z,95.70
2023-04-07T21:19:52.921Z,95.70
2023-04-07T21:22:19.614Z,95.70
2023-04-07T21:24:46.249Z,95.80
2023-04-07T21:27:13.554Z,95.80
2023-04-07T21:29:42.999Z,95.80
2023-04-07T21:32:10.385Z,96.20
2023-04-07T21:34:37.058Z,95.90
2023-04-07T21:37:03.761Z,95.90
2023-04-07T21:39:30.417Z,95.90
2023-04-07T21:41:57.492Z,95.90
2023-04-07T21:44:24.240Z,96.00
2023-04-07T21:46:51.199Z,96.00
2023-04-07T21:49:21.874Z,96.00
2023-04-07T21:51:49.091Z,96.10
2023-04-07T21:54:15.969Z,96.10
2023-04-07T21:56:43.033Z,96.10
2023-04-07T21:59:09.677Z,96.50
2023-04-07T22:01:36.435Z,96.20
2023-04-07T22:04:03.231Z,96.20
2023-04-07T22:06:30.023Z,96.30
2023-04-07T22:09:01.660Z,96.40
2023-04-07T22:11:29.414Z,96.40
2023-04-07T22:13:56.147Z,96.40
2023-04-07T22:16:22.924Z,96.40
2023-04-07T22:18:49.965Z,96.40
2023-04-07T22:21:17.049Z,96.40
2023-04-07T22:23:44.458Z,96.40
2023-04-07T22:26:11.134Z,96.40
2023-04-07T22:28:37.853Z,96.40
2023-04-07T22:31:04.865Z,96.30
2023-04-07T22:33:31.700Z,96.10
2023-04-07T22:35:58.501Z,96.00
2023-04-07T22:38:25.341Z,95.80
2023-04-07T22:40:52.019Z,95.70
2023-04-07T22:43:18.822Z,95.60
2023-04-07T22:45:45.806Z,95.60
2023-04-07T22:48:12.840Z,95.50
2023-04-07T22:50:39.596Z,95.40
2023-04-07T22:53:07.236Z,95.40
2023-04-07T22:55:35.193Z,95.50
2023-04-07T22:58:02.082Z,95.50
2023-04-07T23:00:28.781Z,95.40
2023-04-07T23:02:55.784Z,95.20
2023-04-07T23:05:22.647Z,95.10
2023-04-07T23:07:51.248Z,95.10
2023-04-07T23:10:18.043Z,95.10
2023-04-07T23:12:44.706Z,95.00
2023-04-07T23:15:11.564Z,94.90
2023-04-07T23:17:38.296Z,94.80
2023-04-07T23:20:05.772Z,94.70
2023-04-07T23:22:32.423Z,94.60
2023-04-07T23:24:59.063Z,94.60
2023-04-07T23:27:25.714Z,94.50
2023-04-07T23:29:53.768Z,94.40
2023-04-07T23:32:21.428Z,94.30
2023-04-07T23:34:48.110Z,94.20
2023-04-07T23:37:14.766Z,94.10
2023-04-07T23:39:41.410Z,94.50
2023-04-07T23:42:08.134Z,94.00
2023-04-07T23:44:34.823Z,93.80
2023-04-07T23:47:01.534Z,93.80
2023-04-07T23:49:29.119Z,93.60
2023-04-07T23:51:55.944Z,93.60
2023-04-07T23:54:22.766Z,93.60
2023-04-07T23:56:49.463Z,93.50
2023-04-07T23:59:16.166Z,93.50
